Sakon Nakhon, Thailand

8:54 AM ICT on August 29, 2016 (GMT +0700)
Nakhon Phanom | | Change Station

Elev 584 ft 17.38 °N, 104.64 °E | Updated 24 minutes ago

Overcast
Overcast
79 °F
Feels Like 79 °F
N
6
Wind Variable Wind from ESE

Today
High -- | Low -- °F
--% Chance of Precip.
Yesterday
High -- | Low -- °F
Precip. -- in
Pressure 29.80 in
Visibility 6.2 miles
Clouds Scattered Clouds 1100 ft
Mostly Cloudy 3800 ft
Overcast 5400 ft
Dew Point 75 °F
Humidity 89%
Rainfall 0.00 in
Snow Depth Not available.
5:49 AM 6:19 PM
Waning Crescent, 12% visible
METAR VTUW 290130Z AUTO 12005KT 9999 SCT011/// BKN038/// OVC054/// 26/24 Q1009 A2980
Pressure 29.80 in
Visibility 6.2 miles
Clouds Scattered Clouds 1100 ft
Mostly Cloudy 3800 ft
Overcast 5400 ft
Dew Point 75 °F
Humidity 89%
Rainfall 0.00 in
Snow Depth Not available.
5:49 AM 6:19 PM
Waning Crescent, 12% visible
METAR VTUW 290130Z AUTO 12005KT 9999 SCT011/// BKN038/// OVC054/// 26/24 Q1009 A2980

10-Day Weather Forecast

No radar image for this location.
×

Almanac

Astronomy

Aug. 29, 2016 Rise Set
Actual Time
Civil Twilight
Nautical Twilight
Astronomical Twilight
Moon
Length of Visible Light
Length of Day
Tomorrow will be .
, % of the Moon is Illuminated

Today's Extremes

Country Highs Country Lows

Community

WunderPhotos

Upload Photos

1,935,757 photos uploaded!

WunderBlog® & News

Nearby

Air Quality

  Air Quality AQ Index Pollutant
Not available.

Snow Depth

Station Depth Elevation

Earthquake Activity

City Distance Mag. Time & Date
Minimum magnitude displayed is 2.5.

Coastal Water Temperatures

Place Temperature

Stations

Nearby Weather Stations

Station Location Temp. Windchill Dew Point Humidity Wind Precip. Elev Updated Type